createdAt,value
2022-12-06T00:00:08.800Z,4.72
2022-12-06T00:01:12.401Z,4.55
2022-12-06T00:02:09.108Z,4.57
2022-12-06T00:03:06.048Z,4.81
2022-12-06T00:04:05.934Z,5.00
2022-12-06T00:05:02.535Z,4.99
2022-12-06T00:06:10.861Z,4.64
2022-12-06T00:07:07.554Z,4.52
2022-12-06T00:08:04.376Z,4.68
2022-12-06T00:09:01.418Z,4.78
2022-12-06T00:09:58.333Z,4.62
2022-12-06T00:10:55.520Z,4.74
2022-12-06T00:11:53.211Z,4.74
2022-12-06T00:12:49.790Z,4.55
2022-12-06T00:13:47.275Z,4.77
2022-12-06T00:14:43.885Z,4.79
2022-12-06T00:15:40.547Z,4.87
2022-12-06T00:16:37.539Z,4.91
2022-12-06T00:17:37.595Z,4.92
2022-12-06T00:18:37.309Z,4.83
2022-12-06T00:19:33.915Z,4.68
2022-12-06T00:20:30.718Z,4.43
2022-12-06T00:21:30.132Z,4.40
2022-12-06T00:22:27.406Z,4.72
2022-12-06T00:23:27.575Z,4.16
2022-12-06T00:24:26.938Z,4.28
2022-12-06T00:25:23.513Z,4.28
2022-12-06T00:26:21.037Z,4.41
2022-12-06T00:27:17.618Z,4.67
2022-12-06T00:28:14.262Z,4.39
2022-12-06T00:29:17.438Z,4.27
2022-12-06T00:30:14.207Z,4.34
2022-12-06T00:31:15.621Z,4.34
2022-12-06T00:32:17.633Z,4.33
2022-12-06T00:33:15.943Z,4.36
2022-12-06T00:34:12.763Z,4.27
2022-12-06T00:35:09.386Z,4.24
2022-12-06T00:36:10.236Z,4.48
2022-12-06T00:37:06.858Z,4.56
2022-12-06T00:38:03.484Z,4.42
2022-12-06T00:39:01.499Z,4.27
2022-12-06T00:39:58.453Z,4.13
2022-12-06T00:41:01.764Z,4.47
2022-12-06T00:41:58.407Z,4.42
2022-12-06T00:42:55.008Z,4.44
2022-12-06T00:43:52.723Z,4.40
2022-12-06T00:44:49.348Z,4.22
2022-12-06T00:45:46.074Z,4.12
2022-12-06T00:46:42.686Z,4.12
2022-12-06T00:47:39.271Z,4.42
2022-12-06T00:48:35.897Z,4.41
2022-12-06T00:49:32.484Z,4.40
2022-12-06T00:50:29.109Z,4.34
2022-12-06T00:51:28.436Z,4.31
2022-12-06T00:52:25.022Z,4.43
2022-12-06T00:53:22.826Z,4.58
2022-12-06T00:54:19.484Z,4.78
2022-12-06T00:55:16.126Z,4.69
2022-12-06T00:56:12.914Z,4.81
2022-12-06T00:57:09.760Z,4.82
2022-12-06T00:58:06.385Z,4.57
2022-12-06T00:59:03.830Z,4.69
2022-12-06T01:00:00.600Z,4.32
2022-12-06T01:01:12.764Z,4.41
2022-12-06T01:02:09.746Z,4.57
2022-12-06T01:03:06.498Z,4.98
2022-12-06T01:04:05.884Z,5.00
2022-12-06T01:05:02.540Z,4.31
2022-12-06T01:06:10.539Z,4.57
2022-12-06T01:07:07.115Z,4.67
2022-12-06T01:08:03.971Z,4.72
2022-12-06T01:09:05.540Z,4.89
2022-12-06T01:10:02.258Z,4.68
2022-12-06T01:10:58.921Z,4.35
2022-12-06T01:11:55.682Z,4.38
2022-12-06T01:12:52.281Z,4.46
2022-12-06T01:13:49.025Z,4.56
2022-12-06T01:14:45.605Z,4.68
2022-12-06T01:15:42.215Z,4.69
2022-12-06T01:16:38.986Z,4.80
2022-12-06T01:17:38.613Z,4.66
2022-12-06T01:18:35.817Z,4.51
2022-12-06T01:19:32.457Z,4.71
2022-12-06T01:20:29.047Z,4.65
2022-12-06T01:21:26.429Z,4.65
2022-12-06T01:22:23.159Z,4.62
2022-12-06T01:23:19.747Z,4.76
2022-12-06T01:24:16.325Z,4.58
2022-12-06T01:25:12.932Z,4.38
2022-12-06T01:26:19.367Z,4.85
2022-12-06T01:27:15.975Z,4.58
2022-12-06T01:28:12.569Z,4.51
2022-12-06T01:29:10.025Z,4.32
2022-12-06T01:30:07.220Z,4.36
2022-12-06T01:31:07.983Z,4.49
2022-12-06T01:32:04.955Z,4.65
2022-12-06T01:33:01.496Z,4.48
2022-12-06T01:33:58.121Z,4.29
2022-12-06T01:34:54.802Z,4.83
2022-12-06T01:35:51.353Z,4.91
2022-12-06T01:36:49.620Z,5.00
2022-12-06T01:37:46.196Z,4.91
2022-12-06T01:38:42.817Z,4.86
2022-12-06T01:39:39.420Z,4.73
2022-12-06T01:40:45.418Z,4.67
2022-12-06T01:41:42.390Z,4.46
2022-12-06T01:42:39.038Z,4.46
2022-12-06T01:43:41.958Z,4.48
2022-12-06T01:44:43.623Z,4.43
2022-12-06T01:45:40.300Z,4.28
2022-12-06T01:46:45.340Z,4.39
2022-12-06T01:47:44.335Z,4.75
2022-12-06T01:48:41.808Z,4.59
2022-12-06T01:49:38.711Z,4.74
2022-12-06T01:50:38.071Z,4.78
2022-12-06T01:51:35.868Z,4.62
2022-12-06T01:52:58.943Z,4.68
2022-12-06T01:53:56.172Z,4.50
2022-12-06T01:54:53.574Z,4.57
2022-12-06T01:55:50.216Z,4.52
2022-12-06T01:56:47.924Z,4.83
2022-12-06T01:57:44.762Z,4.71
2022-12-06T01:58:44.678Z,4.45
2022-12-06T01:59:41.959Z,4.38
2022-12-06T02:00:39.073Z,4.44
2022-12-06T02:01:37.160Z,4.35
2022-12-06T02:02:34.087Z,4.40
2022-12-06T02:03:33.080Z,4.28
2022-12-06T02:04:31.831Z,4.65
2022-12-06T02:05:30.396Z,4.60
2022-12-06T02:06:29.269Z,4.81
2022-12-06T02:07:27.426Z,4.82
2022-12-06T02:08:24.820Z,4.85
2022-12-06T02:09:22.599Z,4.57
2022-12-06T02:10:19.266Z,4.70
2022-12-06T02:11:15.946Z,4.64
2022-12-06T02:12:14.828Z,4.67
2022-12-06T02:13:11.815Z,4.77
2022-12-06T02:14:13.537Z,4.55
2022-12-06T02:15:11.325Z,4.90
2022-12-06T02:16:49.477Z,5.08
2022-12-06T02:18:01.243Z,4.89
2022-12-06T02:19:05.771Z,4.96
2022-12-06T02:20:17.802Z,4.72
2022-12-06T02:21:34.940Z,4.46
2022-12-06T02:22:57.844Z,4.41
2022-12-06T02:24:33.021Z,4.61
2022-12-06T02:25:57.266Z,4.75
2022-12-06T02:27:15.110Z,4.87
2022-12-06T02:28:43.801Z,4.45
2022-12-06T02:30:08.085Z,4.34
2022-12-06T02:31:16.695Z,4.45
2022-12-06T02:32:59.417Z,4.40
2022-12-06T02:34:23.060Z,4.36
2022-12-06T02:35:34.522Z,4.61
2022-12-06T02:36:33.309Z,4.64
2022-12-06T02:37:35.775Z,4.40
2022-12-06T02:38:39.119Z,4.49
2022-12-06T02:39:47.183Z,4.45
2022-12-06T02:40:50.695Z,4.54
2022-12-06T02:42:00.628Z,4.61
2022-12-06T02:43:02.877Z,4.36
2022-12-06T02:44:18.290Z,4.53
2022-12-06T02:45:20.024Z,4.59
2022-12-06T02:46:19.917Z,4.84
2022-12-06T02:47:20.802Z,4.63
2022-12-06T02:48:20.902Z,4.63
2022-12-06T02:49:18.498Z,4.18
2022-12-06T02:50:21.506Z,4.71
2022-12-06T02:51:19.509Z,4.80
2022-12-06T02:52:20.263Z,4.30
2022-12-06T02:53:20.735Z,4.48
2022-12-06T02:54:18.187Z,4.43
2022-12-06T02:55:16.926Z,4.72
2022-12-06T02:56:16.684Z,4.91
2022-12-06T02:57:13.359Z,4.57
2022-12-06T02:58:10.400Z,4.83
2022-12-06T02:59:06.951Z,4.68
2022-12-06T03:00:31.021Z,4.46
2022-12-06T03:01:31.345Z,4.52
2022-12-06T03:02:28.812Z,4.36
2022-12-06T03:03:47.362Z,4.58
2022-12-06T03:04:55.538Z,4.64
2022-12-06T03:06:03.913Z,4.63
2022-12-06T03:07:17.250Z,4.70
2022-12-06T03:08:26.790Z,4.30
2022-12-06T03:10:00.568Z,4.50
2022-12-06T03:11:01.747Z,4.31
2022-12-06T03:12:16.559Z,4.24
2022-12-06T03:13:26.015Z,4.33
2022-12-06T03:14:26.618Z,4.37
2022-12-06T03:15:38.307Z,4.28
2022-12-06T03:16:47.583Z,3.83
2022-12-06T03:17:54.752Z,4.24
2022-12-06T03:19:24.895Z,4.43
2022-12-06T03:20:31.840Z,4.36
2022-12-06T03:21:36.094Z,4.32
2022-12-06T03:22:40.190Z,4.29
2022-12-06T03:23:41.976Z,4.23
2022-12-06T03:24:42.418Z,4.36
2022-12-06T03:25:39.486Z,4.34
2022-12-06T03:26:37.955Z,4.55
2022-12-06T03:27:35.850Z,4.42
2022-12-06T03:28:36.586Z,3.99
2022-12-06T03:29:37.991Z,4.38
2022-12-06T03:30:35.327Z,4.17
2022-12-06T03:31:35.251Z,4.20
2022-12-06T03:32:34.181Z,4.42
2022-12-06T03:33:33.709Z,4.64
2022-12-06T03:34:36.460Z,4.59
2022-12-06T09:52:53.689Z,7.58
2022-12-06T09:54:14.582Z,7.99
2022-12-06T09:55:31.435Z,7.93
2022-12-06T09:56:46.691Z,7.97
2022-12-06T09:57:57.194Z,7.87
2022-12-06T09:59:08.973Z,7.97
2022-12-06T10:00:18.998Z,8.31
2022-12-06T10:01:55.663Z,8.20
2022-12-06T10:03:21.243Z,8.80
2022-12-06T10:04:48.147Z,8.76
2022-12-06T10:06:00.796Z,8.20
2022-12-06T10:07:11.273Z,8.21
2022-12-06T10:08:47.774Z,8.30
2022-12-06T10:09:56.390Z,8.53
2022-12-06T10:11:22.229Z,8.84
2022-12-06T10:12:56.781Z,8.87
2022-12-06T10:13:53.377Z,8.44
2022-12-06T10:14:52.775Z,8.81
2022-12-06T10:16:09.047Z,8.74
2022-12-06T10:17:24.174Z,8.95
2022-12-06T10:18:35.281Z,8.67
2022-12-06T10:19:56.152Z,8.42
2022-12-06T10:21:17.445Z,8.73
2022-12-06T10:22:36.787Z,8.18
2022-12-06T10:24:01.838Z,8.23
2022-12-06T10:25:03.983Z,8.44
2022-12-06T10:26:10.140Z,8.42
2022-12-06T10:27:29.544Z,8.51
2022-12-06T10:28:53.273Z,8.70
2022-12-06T10:29:55.225Z,8.60
2022-12-06T10:30:55.962Z,8.63
2022-12-06T10:31:58.156Z,8.08
2022-12-06T10:33:05.624Z,7.98
2022-12-06T10:34:27.321Z,8.10
2022-12-06T10:36:03.365Z,8.11
2022-12-06T10:37:09.123Z,8.45
2022-12-06T10:38:24.176Z,8.41
2022-12-06T10:39:50.327Z,8.47
2022-12-06T10:40:54.630Z,8.94
2022-12-06T10:42:05.025Z,8.89
2022-12-06T10:43:23.172Z,8.57
2022-12-06T10:44:33.103Z,8.55
2022-12-06T10:45:53.383Z,8.44
2022-12-06T10:47:16.592Z,8.22
2022-12-06T10:48:22.100Z,8.21
2022-12-06T10:49:27.612Z,8.06
2022-12-06T10:50:31.526Z,8.31
2022-12-06T10:51:46.674Z,8.11
2022-12-06T10:52:51.581Z,8.35
2022-12-06T10:53:55.413Z,8.36
2022-12-06T10:55:36.461Z,8.25
2022-12-06T10:56:38.295Z,8.23
2022-12-06T10:57:53.867Z,8.84
2022-12-06T10:59:02.891Z,9.29
2022-12-06T11:00:15.880Z,9.14
2022-12-06T11:01:18.976Z,9.10
2022-12-06T11:02:39.946Z,9.29
2022-12-06T11:04:08.640Z,8.80
2022-12-06T11:05:17.766Z,9.36
2022-12-06T11:06:22.266Z,9.62
2022-12-06T11:07:25.458Z,9.41
2022-12-06T11:08:29.444Z,9.37
2022-12-06T11:09:44.846Z,8.76
2022-12-06T11:10:45.088Z,9.19
2022-12-06T11:11:43.893Z,9.15
2022-12-06T11:12:41.804Z,9.27
2022-12-06T11:13:42.229Z,9.02
2022-12-06T11:14:43.360Z,9.10
2022-12-06T11:15:46.436Z,8.88
2022-12-06T11:16:57.953Z,9.08
2022-12-06T11:18:04.560Z,9.46
2022-12-06T11:19:19.024Z,9.70
2022-12-06T11:20:27.586Z,9.67
2022-12-06T11:21:33.483Z,10.16
2022-12-06T11:22:45.393Z,9.94
2022-12-06T11:24:15.598Z,9.65
2022-12-06T11:25:36.553Z,9.74
2022-12-06T11:26:49.132Z,9.63
2022-12-06T11:28:05.062Z,9.89
2022-12-06T11:29:06.059Z,9.52
2022-12-06T11:30:13.695Z,9.74
2022-12-06T11:31:25.642Z,9.44
2022-12-06T11:32:22.354Z,9.66
2022-12-06T11:33:26.130Z,10.11
2022-12-06T11:34:29.121Z,9.84
2022-12-06T11:35:28.296Z,9.62
2022-12-06T11:36:26.918Z,9.31
2022-12-06T11:37:30.730Z,9.71
2022-12-06T11:38:27.487Z,10.17
2022-12-06T11:39:24.521Z,10.23
2022-12-06T11:40:33.963Z,10.13
2022-12-06T11:41:34.977Z,9.39
2022-12-06T11:42:31.527Z,9.09
2022-12-06T11:43:35.001Z,9.27
2022-12-06T11:44:58.585Z,9.04
2022-12-06T11:45:56.393Z,9.44
2022-12-06T11:47:00.494Z,9.52
2022-12-06T11:47:59.575Z,9.25
2022-12-06T11:49:05.808Z,9.25
2022-12-06T11:50:07.975Z,8.99
2022-12-06T11:51:16.043Z,9.14
2022-12-06T11:52:25.974Z,9.03
2022-12-06T11:53:45.589Z,8.74
2022-12-06T11:54:57.515Z,8.98
2022-12-06T11:55:57.530Z,9.45
2022-12-06T11:56:59.253Z,9.38
2022-12-06T11:58:04.119Z,9.37
2022-12-06T11:59:28.525Z,9.17
2022-12-06T12:00:25.912Z,9.11
2022-12-06T12:01:37.823Z,8.80
2022-12-06T12:02:34.983Z,8.69
2022-12-06T12:03:36.687Z,9.20
2022-12-06T12:04:44.933Z,9.17
2022-12-06T12:05:41.607Z,9.26
2022-12-06T12:06:38.263Z,8.96
2022-12-06T12:07:35.320Z,8.63
2022-12-06T12:08:32.957Z,8.94
2022-12-06T12:09:33.701Z,8.92
2022-12-06T12:10:40.191Z,9.43
2022-12-06T12:11:40.226Z,9.35
2022-12-06T12:13:08.933Z,9.48
2022-12-06T12:14:15.831Z,9.35
2022-12-06T12:15:19.492Z,9.07
2022-12-06T12:16:28.420Z,8.91
2022-12-06T12:17:32.324Z,9.03
2022-12-06T12:18:33.263Z,9.10
2022-12-06T12:19:57.177Z,9.12
2022-12-06T12:20:56.374Z,8.94
2022-12-06T12:21:55.453Z,8.95
2022-12-06T12:23:01.151Z,8.59
2022-12-06T12:23:58.393Z,8.76
2022-12-06T12:26:18.519Z,8.53
2022-12-06T12:27:39.628Z,8.74
2022-12-06T12:28:38.569Z,8.82
2022-12-06T12:29:35.231Z,8.76
2022-12-06T12:30:33.287Z,8.91
2022-12-06T12:31:30.213Z,9.08
2022-12-06T12:32:26.995Z,9.20
2022-12-06T12:33:25.525Z,8.49
2022-12-06T12:34:28.523Z,9.37
2022-12-06T12:35:28.339Z,9.09
2022-12-06T12:36:29.378Z,8.57
2022-12-06T12:37:26.008Z,8.82
2022-12-06T12:38:31.589Z,8.93
2022-12-06T12:39:38.648Z,8.46
2022-12-06T12:40:45.819Z,8.29
2022-12-06T12:41:44.347Z,8.30
2022-12-06T12:42:41.244Z,8.60
2022-12-06T12:43:38.956Z,8.81
2022-12-06T12:44:39.701Z,9.09
2022-12-06T12:45:36.916Z,9.06
2022-12-06T12:46:36.874Z,8.83
2022-12-06T12:47:33.588Z,8.79
2022-12-06T12:48:31.462Z,8.76
2022-12-06T12:49:36.945Z,8.67
2022-12-06T12:50:33.586Z,8.79
2022-12-06T12:51:38.054Z,8.82
2022-12-06T12:52:40.652Z,8.61
2022-12-06T12:53:41.896Z,8.96
2022-12-06T12:54:38.722Z,8.73
2022-12-06T12:55:37.820Z,8.75
2022-12-06T12:56:37.146Z,8.72
2022-12-06T12:57:33.822Z,8.63
2022-12-06T12:58:35.715Z,8.40
2022-12-06T12:59:37.878Z,8.61
2022-12-06T13:00:41.050Z,8.45
2022-12-06T13:02:14.834Z,8.16
2022-12-06T13:03:49.602Z,8.13
2022-12-06T13:04:48.783Z,8.06
2022-12-06T13:05:49.308Z,8.65
2022-12-06T13:06:50.124Z,8.99
2022-12-06T13:07:49.527Z,8.45
2022-12-06T13:08:46.525Z,8.20
2022-12-06T13:09:45.956Z,8.54
2022-12-06T13:10:47.223Z,8.59
2022-12-06T13:11:52.402Z,8.18
2022-12-06T13:13:15.098Z,8.26
2022-12-06T13:14:19.215Z,8.00
2022-12-06T13:15:19.859Z,8.09
2022-12-06T13:16:23.711Z,7.94
2022-12-06T13:17:24.780Z,7.83
2022-12-06T13:18:34.117Z,8.10
2022-12-06T13:19:40.654Z,8.09
2022-12-06T13:20:37.820Z,8.23
2022-12-06T13:21:42.865Z,8.07
2022-12-06T13:22:45.260Z,8.29
2022-12-06T13:23:42.474Z,8.66
2022-12-06T13:24:41.171Z,8.36
2022-12-06T13:25:38.268Z,8.23
2022-12-06T13:27:03.037Z,8.07
2022-12-06T13:28:05.596Z,8.06
2022-12-06T13:29:43.378Z,8.10
2022-12-06T13:30:42.180Z,7.84
2022-12-06T13:31:41.045Z,7.90
2022-12-06T13:32:52.038Z,7.89
2022-12-06T13:33:53.676Z,7.99
2022-12-06T13:35:02.626Z,7.93
2022-12-06T13:36:07.555Z,7.96
2022-12-06T13:37:04.459Z,7.94
2022-12-06T13:38:04.203Z,7.85
2022-12-06T13:39:32.847Z,7.78
2022-12-06T13:40:32.559Z,7.88
2022-12-06T13:41:53.512Z,7.77
2022-12-06T13:42:50.135Z,7.49
2022-12-06T13:43:46.707Z,7.47
2022-12-06T13:44:55.954Z,7.53
2022-12-06T13:45:53.473Z,7.63
2022-12-06T13:46:50.122Z,7.43
2022-12-06T13:47:50.729Z,7.54
2022-12-06T13:48:55.047Z,7.64
2022-12-06T13:49:51.695Z,7.41
2022-12-06T13:51:09.974Z,7.65
2022-12-06T13:52:06.702Z,7.57
2022-12-06T13:53:03.852Z,7.56
2022-12-06T13:54:06.521Z,7.53
2022-12-06T13:55:25.083Z,7.36
2022-12-06T13:56:34.050Z,7.24
2022-12-06T13:57:31.844Z,7.47
2022-12-06T13:58:28.335Z,7.22
2022-12-06T13:59:24.844Z,7.16
2022-12-06T14:00:30.387Z,7.15
2022-12-06T14:01:47.305Z,7.02
2022-12-06T14:02:46.488Z,6.99
2022-12-06T14:03:55.914Z,6.82
2022-12-06T14:04:52.502Z,6.84
2022-12-06T14:06:15.892Z,6.94
2022-12-06T14:08:13.520Z,6.95
2022-12-06T14:09:11.001Z,7.08
2022-12-06T14:10:14.499Z,7.00
2022-12-06T14:11:14.791Z,7.01
2022-12-06T14:12:23.652Z,6.85
2022-12-06T14:13:21.538Z,6.81
2022-12-06T14:14:21.172Z,6.77
2022-12-06T14:15:19.438Z,6.90
2022-12-06T14:16:22.940Z,7.13
2022-12-06T14:17:52.562Z,7.24
2022-12-06T14:18:40.475Z,7.10
2022-12-06T14:19:49.086Z,6.73
2022-12-06T14:20:48.601Z,6.73
2022-12-06T14:21:59.188Z,6.44
2022-12-06T14:22:56.420Z,6.35
2022-12-06T14:23:53.283Z,6.07
2022-12-06T14:25:03.685Z,6.27
2022-12-06T14:26:31.579Z,6.41
2022-12-06T14:27:30.957Z,6.32
2022-12-06T14:28:35.137Z,6.36
2022-12-06T14:29:33.113Z,6.48
2022-12-06T14:30:30.198Z,5.63
2022-12-06T14:31:36.912Z,6.31
2022-12-06T14:32:48.160Z,6.16
2022-12-06T14:33:45.091Z,6.19
2022-12-06T14:34:41.711Z,6.15
2022-12-06T14:35:40.034Z,6.08
2022-12-06T14:36:40.806Z,6.04
2022-12-06T14:37:38.049Z,6.50
2022-12-06T14:38:34.932Z,6.26
2022-12-06T14:39:32.391Z,6.49
2022-12-06T14:40:54.818Z,6.45
2022-12-06T14:42:37.750Z,6.47
2022-12-06T14:43:34.935Z,6.37
2022-12-06T14:44:32.505Z,6.52
2022-12-06T14:45:38.537Z,6.28
2022-12-06T14:46:36.007Z,6.02
2022-12-06T14:47:32.947Z,5.86
2022-12-06T14:48:51.497Z,5.65
2022-12-06T14:50:16.552Z,5.69
2022-12-06T14:51:23.408Z,5.55
2022-12-06T14:52:23.141Z,5.39
2022-12-06T14:53:38.881Z,5.50
2022-12-06T14:54:43.011Z,5.26
2022-12-06T14:55:55.229Z,5.64
2022-12-06T14:56:51.879Z,5.85
2022-12-06T14:58:20.096Z,5.65
2022-12-06T14:59:39.042Z,5.48
2022-12-06T15:00:47.622Z,5.23
2022-12-06T15:01:54.386Z,5.47
2022-12-06T15:03:05.631Z,5.49
2022-12-06T15:04:08.130Z,5.33
2022-12-06T15:05:24.577Z,5.32
2022-12-06T15:06:24.036Z,4.84
2022-12-06T15:07:42.320Z,5.29
2022-12-06T15:08:42.289Z,5.04
2022-12-06T15:09:46.457Z,5.08
2022-12-06T15:11:00.407Z,5.17
2022-12-06T15:12:45.554Z,5.05
2022-12-06T15:13:42.129Z,5.05
2022-12-06T15:14:49.451Z,4.99
2022-12-06T15:15:47.788Z,4.91
2022-12-06T15:16:57.132Z,4.79
2022-12-06T15:17:53.726Z,4.63
2022-12-06T15:19:00.127Z,4.85
2022-12-06T15:19:56.857Z,5.07
2022-12-06T15:20:54.221Z,5.12
2022-12-06T15:21:52.482Z,5.18
2022-12-06T15:22:49.090Z,5.28
2022-12-06T15:23:55.802Z,4.98
2022-12-06T15:24:57.485Z,4.57
2022-12-06T15:25:54.238Z,4.75
2022-12-06T15:26:51.057Z,4.69
2022-12-06T15:27:47.632Z,4.62
2022-12-06T15:28:44.481Z,4.81
2022-12-06T15:29:41.114Z,4.83
2022-12-06T15:30:37.711Z,4.80
2022-12-06T15:31:36.167Z,4.90
2022-12-06T15:32:33.167Z,4.92
2022-12-06T15:33:30.179Z,5.39
2022-12-06T15:34:28.559Z,5.35
2022-12-06T15:35:25.097Z,4.97
2022-12-06T15:36:24.652Z,4.83
2022-12-06T15:37:39.104Z,4.88
2022-12-06T15:38:36.455Z,4.43
2022-12-06T15:39:33.254Z,4.56
2022-12-06T15:40:29.937Z,4.45
2022-12-06T15:41:28.357Z,3.91
2022-12-06T15:42:25.319Z,4.24
2022-12-06T15:43:29.384Z,4.25
2022-12-06T15:44:26.618Z,4.16
2022-12-06T15:45:23.212Z,4.24
2022-12-06T15:46:25.870Z,4.11
2022-12-06T15:47:22.610Z,4.01
2022-12-06T15:48:19.314Z,4.04
2022-12-06T15:49:22.045Z,4.03
2022-12-06T15:50:19.453Z,4.15
2022-12-06T15:51:20.943Z,4.08
2022-12-06T15:52:25.071Z,4.23
2022-12-06T15:53:23.527Z,4.22
2022-12-06T15:54:23.410Z,3.95
2022-12-06T15:55:20.107Z,3.97
2022-12-06T15:56:22.626Z,4.19
2022-12-06T15:57:19.186Z,4.18
2022-12-06T15:58:16.032Z,3.99
2022-12-06T15:59:13.264Z,3.99
2022-12-06T16:00:10.368Z,3.80
2022-12-06T16:01:28.410Z,3.86
2022-12-06T16:02:25.109Z,3.58
2022-12-06T16:03:21.789Z,3.83
2022-12-06T16:04:21.080Z,3.77
2022-12-06T16:05:17.677Z,3.82
2022-12-06T16:06:16.206Z,3.64
2022-12-06T16:07:18.576Z,3.85
2022-12-06T16:08:15.586Z,3.81
2022-12-06T16:09:14.038Z,4.03
2022-12-06T16:10:10.762Z,3.77
2022-12-06T16:11:12.732Z,3.95
2022-12-06T16:12:10.225Z,4.02
2022-12-06T16:13:21.751Z,4.01
2022-12-06T16:14:18.383Z,4.12
2022-12-06T16:15:15.053Z,4.08
2022-12-06T16:16:12.235Z,4.07
2022-12-06T16:17:09.005Z,3.73
2022-12-06T16:18:05.884Z,3.90
2022-12-06T16:19:03.170Z,3.93
2022-12-06T16:20:18.453Z,4.39
2022-12-06T16:21:24.892Z,4.42
2022-12-06T16:22:44.072Z,4.46
2022-12-06T16:24:15.149Z,4.16
2022-12-06T16:25:11.923Z,4.13
2022-12-06T16:26:08.612Z,4.04
2022-12-06T16:27:05.330Z,3.89
2022-12-06T16:28:01.962Z,4.13
2022-12-06T16:28:59.333Z,4.57
2022-12-06T16:29:55.877Z,4.61
2022-12-06T16:30:53.047Z,4.89
2022-12-06T16:31:51.102Z,4.97
2022-12-06T16:32:47.851Z,4.93
2022-12-06T16:33:44.478Z,4.78
2022-12-06T16:34:41.078Z,4.59
2022-12-06T16:35:37.711Z,4.38
2022-12-06T16:36:34.860Z,4.54
2022-12-06T16:37:31.490Z,4.77
2022-12-06T16:38:28.278Z,4.83
2022-12-06T16:39:25.077Z,4.74
2022-12-06T16:40:26.789Z,4.36
2022-12-06T16:41:26.368Z,3.90
2022-12-06T16:42:22.986Z,3.85
2022-12-06T16:43:20.093Z,4.07
2022-12-06T16:44:16.743Z,4.03
2022-12-06T16:45:13.551Z,3.65
2022-12-06T16:46:25.405Z,3.94
2022-12-06T16:48:19.810Z,4.40
2022-12-06T16:50:37.644Z,4.24
2022-12-06T16:51:34.982Z,4.54
2022-12-06T16:52:32.019Z,4.76
2022-12-06T16:53:28.675Z,4.61
2022-12-06T16:54:25.303Z,4.20
2022-12-06T16:55:22.102Z,4.21
2022-12-06T16:56:19.221Z,4.49
2022-12-06T16:57:15.977Z,4.21
2022-12-06T16:58:12.679Z,3.73
2022-12-06T16:59:14.842Z,4.01
2022-12-06T17:00:14.063Z,4.33
2022-12-06T17:01:21.513Z,4.49
2022-12-06T17:02:30.356Z,4.42
2022-12-06T17:03:27.010Z,3.94
2022-12-06T17:04:24.250Z,3.90
2022-12-06T17:05:24.393Z,3.66
2022-12-06T17:06:22.000Z,3.75
2022-12-06T17:07:18.730Z,3.73
2022-12-06T17:08:21.732Z,3.66
2022-12-06T17:09:19.810Z,3.58
2022-12-06T17:10:18.402Z,3.45
2022-12-06T17:11:39.339Z,3.18
2022-12-06T17:12:35.995Z,3.32
2022-12-06T17:13:32.560Z,3.52
2022-12-06T17:14:29.666Z,3.58
2022-12-06T17:15:26.332Z,3.38
2022-12-06T17:16:23.004Z,3.16
2022-12-06T17:17:21.751Z,2.98
2022-12-06T17:18:18.540Z,3.01
2022-12-06T17:19:22.154Z,2.96
2022-12-06T17:20:19.751Z,2.83
2022-12-06T17:21:17.368Z,3.26
2022-12-06T17:22:16.439Z,3.82
2022-12-06T17:23:15.518Z,3.83
2022-12-06T17:24:13.100Z,3.56
2022-12-06T17:25:11.135Z,3.43
2022-12-06T17:26:07.723Z,3.38
2022-12-06T17:27:04.405Z,3.20
2022-12-06T17:28:01.067Z,3.22
2022-12-06T17:28:58.852Z,3.17
2022-12-06T17:29:55.524Z,3.32
2022-12-06T17:30:53.347Z,3.80
2022-12-06T17:31:50.422Z,4.06
2022-12-06T17:32:47.293Z,4.16
2022-12-06T17:33:43.974Z,3.94
2022-12-06T17:34:40.621Z,3.54
2022-12-06T17:35:37.292Z,3.47
2022-12-06T17:36:34.734Z,3.67
2022-12-06T17:37:31.360Z,3.71
2022-12-06T17:38:29.654Z,3.48
2022-12-06T17:39:26.450Z,3.45
2022-12-06T17:40:23.103Z,4.02
2022-12-06T17:41:40.627Z,4.09
2022-12-06T17:42:55.944Z,3.92
2022-12-06T17:43:52.578Z,3.73
2022-12-06T17:44:52.882Z,3.89
2022-12-06T17:45:49.556Z,3.85
2022-12-06T17:46:46.535Z,3.87
2022-12-06T17:47:43.226Z,4.12
2022-12-06T17:48:44.419Z,3.93
2022-12-06T17:49:41.420Z,4.46
2022-12-06T17:50:38.002Z,4.47
2022-12-06T17:51:34.588Z,4.10
2022-12-06T17:52:31.181Z,3.96
2022-12-06T17:53:27.807Z,4.15
2022-12-06T17:54:24.831Z,4.33
2022-12-06T17:55:21.419Z,4.44
2022-12-06T17:56:33.002Z,4.46
2022-12-06T17:57:29.803Z,4.18
2022-12-06T17:58:26.408Z,4.06
2022-12-06T17:59:25.778Z,3.78
2022-12-06T18:00:23.863Z,3.95
2022-12-06T18:01:21.563Z,4.07
2022-12-06T18:02:24.326Z,3.98
2022-12-06T18:03:21.009Z,3.76
2022-12-06T18:04:17.941Z,4.18
2022-12-06T18:05:14.744Z,4.35
2022-12-06T18:06:11.896Z,3.46
2022-12-06T18:07:08.501Z,4.00
2022-12-06T18:08:05.188Z,3.31
2022-12-06T18:09:02.782Z,3.82
2022-12-06T18:09:59.334Z,3.76
2022-12-06T18:11:00.015Z,3.78
2022-12-06T18:12:01.217Z,3.56
2022-12-06T18:13:01.434Z,3.91
2022-12-06T18:14:00.349Z,4.09
2022-12-06T18:14:56.986Z,4.09
2022-12-06T18:15:53.583Z,4.21
2022-12-06T18:16:50.366Z,4.49
2022-12-06T18:17:47.101Z,4.71
2022-12-06T18:18:44.663Z,4.39
2022-12-06T18:19:41.452Z,4.60
2022-12-06T18:20:38.113Z,4.20
2022-12-06T18:21:38.516Z,4.28
2022-12-06T18:22:35.070Z,4.26
2022-12-06T18:23:31.722Z,4.09
2022-12-06T18:24:33.628Z,3.97
2022-12-06T18:25:32.126Z,3.77
2022-12-06T18:26:29.035Z,3.74
2022-12-06T18:27:25.586Z,3.44
2022-12-06T18:28:22.131Z,3.50
2022-12-06T18:29:21.873Z,3.62
2022-12-06T18:30:18.540Z,3.63
2022-12-06T18:31:15.150Z,3.65
2022-12-06T18:32:11.824Z,3.95
2022-12-06T18:33:08.455Z,3.75
2022-12-06T18:34:05.159Z,3.35
2022-12-06T18:35:02.286Z,3.70
2022-12-06T18:36:00.264Z,3.81
2022-12-06T18:36:57.299Z,3.77
2022-12-06T18:37:54.055Z,3.94
2022-12-06T18:38:50.679Z,3.90
2022-12-06T18:39:47.758Z,3.75
2022-12-06T18:40:44.375Z,3.64
2022-12-06T18:41:41.171Z,3.57
2022-12-06T18:42:38.579Z,3.31
2022-12-06T18:43:35.920Z,3.40
2022-12-06T18:44:32.594Z,3.48
2022-12-06T18:45:29.500Z,3.45
2022-12-06T18:46:27.196Z,3.35
2022-12-06T18:47:23.809Z,3.88
2022-12-06T18:48:20.411Z,4.14
2022-12-06T18:49:17.228Z,4.29
2022-12-06T18:50:13.873Z,4.05
2022-12-06T18:51:16.413Z,4.07
2022-12-06T18:52:12.988Z,4.02
2022-12-06T18:53:11.059Z,3.78
2022-12-06T18:54:08.419Z,3.56
2022-12-06T18:55:05.382Z,3.20
2022-12-06T18:56:02.591Z,3.29
2022-12-06T18:56:59.409Z,3.40
2022-12-06T18:57:56.045Z,3.40
2022-12-06T18:58:53.381Z,3.44
2022-12-06T18:59:49.971Z,3.99
2022-12-06T19:00:46.800Z,4.31
2022-12-06T19:01:43.481Z,4.31
2022-12-06T19:02:40.201Z,4.44
2022-12-06T19:03:36.777Z,4.35
2022-12-06T19:04:33.705Z,4.05
2022-12-06T19:06:00.677Z,3.89
2022-12-06T19:06:47.012Z,3.80
2022-12-06T19:07:44.727Z,3.82
2022-12-06T19:08:43.489Z,3.91
2022-12-06T19:09:40.177Z,3.61
2022-12-06T19:10:36.940Z,3.62
2022-12-06T19:11:36.342Z,3.71
2022-12-06T19:12:32.931Z,3.68
2022-12-06T19:13:29.557Z,3.46
2022-12-06T19:14:26.224Z,3.75
2022-12-06T19:15:22.945Z,3.80
2022-12-06T19:16:26.982Z,3.83
2022-12-06T19:17:23.788Z,3.70
2022-12-06T19:18:20.378Z,3.66
2022-12-06T19:19:26.050Z,3.69
2022-12-06T19:20:22.752Z,3.74
2022-12-06T19:21:19.417Z,3.76
2022-12-06T19:22:15.990Z,3.72
2022-12-06T19:23:12.579Z,3.77
2022-12-06T19:24:11.315Z,3.64
2022-12-06T19:25:08.846Z,3.64
2022-12-06T19:26:06.147Z,3.49
2022-12-06T19:27:02.716Z,3.48
2022-12-06T19:27:59.330Z,3.74
2022-12-06T19:28:56.466Z,3.46
2022-12-06T19:29:53.126Z,3.76
2022-12-06T19:30:59.937Z,3.75
2022-12-06T19:31:56.748Z,3.69
2022-12-06T19:32:53.417Z,3.75
2022-12-06T19:33:51.003Z,3.80
2022-12-06T19:34:47.696Z,3.75
2022-12-06T19:35:44.298Z,3.77
2022-12-06T19:36:40.933Z,3.79
2022-12-06T19:37:37.556Z,3.85
2022-12-06T19:38:34.762Z,3.89
2022-12-06T19:39:31.424Z,3.94
2022-12-06T19:40:28.222Z,4.08
2022-12-06T19:41:25.448Z,4.16
2022-12-06T19:42:40.777Z,3.98
2022-12-06T19:43:55.930Z,3.61
2022-12-06T19:44:55.383Z,3.59
2022-12-06T19:45:52.089Z,3.61
2022-12-06T19:46:49.001Z,3.69
2022-12-06T19:47:45.691Z,3.58
2022-12-06T19:48:42.461Z,3.52
2022-12-06T19:49:39.158Z,3.53
2022-12-06T19:50:35.854Z,3.65
2022-12-06T19:51:36.692Z,3.71
2022-12-06T19:52:35.685Z,3.73
2022-12-06T19:53:34.488Z,3.59
2022-12-06T19:54:32.781Z,3.59
2022-12-06T19:55:29.413Z,3.38
2022-12-06T19:56:26.716Z,3.50
2022-12-06T19:57:23.378Z,3.55
2022-12-06T19:58:20.892Z,3.55
2022-12-06T19:59:17.600Z,3.46
2022-12-06T20:00:19.568Z,3.41
2022-12-06T20:01:21.799Z,3.23
2022-12-06T20:02:18.613Z,2.82
2022-12-06T20:03:15.340Z,3.14
2022-12-06T20:04:18.542Z,3.11
2022-12-06T20:05:15.208Z,3.23
2022-12-06T20:06:18.064Z,3.41
2022-12-06T20:07:15.405Z,3.60
2022-12-06T20:08:12.133Z,3.58
2022-12-06T20:09:10.134Z,3.51
2022-12-06T20:10:07.549Z,3.50
2022-12-06T20:11:06.387Z,3.50
2022-12-06T20:12:05.263Z,3.33
2022-12-06T20:13:02.174Z,3.36